createdAt,value
2018-11-25T00:02:28.884Z,7.50
2018-11-25T00:05:33.020Z,8.47
2018-11-25T00:08:37.184Z,8.87
2018-11-25T00:11:41.307Z,7.50
2018-11-25T00:14:45.524Z,6.70
2018-11-25T00:17:49.667Z,8.43
2018-11-25T00:20:53.855Z,7.53
2018-11-25T00:23:57.988Z,9.00
2018-11-25T00:27:02.191Z,7.83
2018-11-25T00:30:09.866Z,6.63
2018-11-25T00:33:13.999Z,6.73
2018-11-25T00:36:18.136Z,7.23
2018-11-25T00:39:22.371Z,7.57
2018-11-25T00:42:26.491Z,7.30
2018-11-25T00:45:30.636Z,8.87
2018-11-25T00:48:34.798Z,7.97
2018-11-25T00:51:38.935Z,8.97
2018-11-25T00:54:43.148Z,8.50
2018-11-25T00:57:47.360Z,9.37
2018-11-25T01:00:51.575Z,8.63
2018-11-25T01:03:55.723Z,10.90
2018-11-25T01:06:59.913Z,9.73
2018-11-25T01:10:05.228Z,9.97
2018-11-25T01:13:09.375Z,10.37
2018-11-25T01:16:13.579Z,9.10
2018-11-25T01:19:17.730Z,9.53
2018-11-25T01:22:21.926Z,9.83
2018-11-25T01:25:26.150Z,8.97
2018-11-25T01:28:30.368Z,9.33
2018-11-25T01:31:34.496Z,10.47
2018-11-25T01:34:38.643Z,10.30
2018-11-25T01:37:43.018Z,8.93
2018-11-25T01:40:47.236Z,10.97
2018-11-25T01:43:51.484Z,10.77
2018-11-25T01:46:55.618Z,11.63
2018-11-25T01:49:59.815Z,11.60
2018-11-25T01:53:03.960Z,10.50
2018-11-25T01:56:08.128Z,10.77
2018-11-25T01:59:12.265Z,10.90
2018-11-25T02:02:16.456Z,9.90
2018-11-25T02:05:20.691Z,10.60
2018-11-25T02:08:24.908Z,11.03
2018-11-25T02:11:29.025Z,10.47
2018-11-25T02:14:33.190Z,10.73
2018-11-25T02:17:37.323Z,10.10
2018-11-25T02:20:41.547Z,10.33
2018-11-25T02:23:45.701Z,10.43
2018-11-25T02:26:49.892Z,10.33
2018-11-25T02:29:54.228Z,9.87
2018-11-25T02:32:58.375Z,10.60
2018-11-25T02:36:02.551Z,12.10
2018-11-25T02:39:09.264Z,10.90
2018-11-25T02:42:13.357Z,11.93
2018-11-25T02:45:18.891Z,11.03
2018-11-25T02:48:22.982Z,11.47
2018-11-25T02:51:27.131Z,11.80
2018-11-25T02:54:31.242Z,11.90
2018-11-25T02:57:35.343Z,12.33
2018-11-25T03:00:39.584Z,12.20
2018-11-25T03:03:43.700Z,11.33
2018-11-25T03:06:47.777Z,11.27
2018-11-25T03:09:51.949Z,11.67
2018-11-25T03:12:56.035Z,12.03
2018-11-25T03:16:00.128Z,11.23
2018-11-25T03:19:04.283Z,11.47
2018-11-25T03:22:08.387Z,11.13
2018-11-25T03:25:20.620Z,12.13
2018-11-25T03:28:24.725Z,10.77
2018-11-25T03:31:28.829Z,10.47
2018-11-25T03:34:32.937Z,11.07
2018-11-25T03:37:37.074Z,10.83
2018-11-25T03:40:41.183Z,11.67
2018-11-25T03:43:45.320Z,10.97
2018-11-25T03:46:49.419Z,11.27
2018-11-25T03:49:53.558Z,11.37
2018-11-25T03:52:57.653Z,11.50
2018-11-25T03:56:01.761Z,12.17
2018-11-25T03:59:06.508Z,12.00
2018-11-25T04:02:10.592Z,12.17
2018-11-25T04:05:16.035Z,12.60
2018-11-25T04:08:20.123Z,12.70
2018-11-25T04:11:24.208Z,11.40
2018-11-25T04:14:28.305Z,11.23
2018-11-25T04:17:32.620Z,11.93
2018-11-25T04:20:36.744Z,12.80
2018-11-25T04:23:40.843Z,12.03
2018-11-25T04:26:44.971Z,11.30
2018-11-25T04:29:49.091Z,11.50
2018-11-25T04:32:53.180Z,12.07
2018-11-25T04:35:57.323Z,12.70
2018-11-25T04:39:01.444Z,12.17
2018-11-25T04:42:05.863Z,13.53
2018-11-25T04:45:12.496Z,11.83
2018-11-25T04:48:16.652Z,12.27
2018-11-25T04:51:20.785Z,12.50
2018-11-25T04:54:24.907Z,13.27
2018-11-25T04:57:29.035Z,12.47
2018-11-25T05:00:33.157Z,12.33
2018-11-25T05:03:37.281Z,12.23
2018-11-25T05:06:41.407Z,12.30
2018-11-25T05:09:45.532Z,13.00
2018-11-25T05:12:49.687Z,11.83
2018-11-25T05:15:53.807Z,12.03
2018-11-25T05:18:57.920Z,11.30
2018-11-25T05:22:02.045Z,11.00
2018-11-25T05:25:08.697Z,11.77
2018-11-25T05:28:12.823Z,13.00
2018-11-25T05:31:16.952Z,11.83
2018-11-25T05:34:21.080Z,11.27
2018-11-25T05:37:25.184Z,12.13
2018-11-25T05:40:29.279Z,11.80
2018-11-25T05:43:33.383Z,12.37
2018-11-25T05:46:37.528Z,13.73
2018-11-25T05:49:41.631Z,11.47
2018-11-25T05:52:45.787Z,12.37
2018-11-25T05:55:49.869Z,11.07
2018-11-25T05:58:53.988Z,13.10
2018-11-25T06:01:58.107Z,13.30
2018-11-25T06:05:02.228Z,12.17
2018-11-25T06:08:06.448Z,12.87
2018-11-25T06:11:10.559Z,11.90
2018-11-25T06:14:14.653Z,13.00
2018-11-25T06:17:18.733Z,12.70
2018-11-25T06:20:22.825Z,13.27
2018-11-25T06:23:26.915Z,14.57
2018-11-25T06:26:31.067Z,13.30
2018-11-25T06:29:35.177Z,12.83
2018-11-25T06:32:39.371Z,13.90
2018-11-25T06:35:43.491Z,12.40
2018-11-25T06:38:47.604Z,13.30
2018-11-25T06:41:51.743Z,12.93
2018-11-25T06:44:55.935Z,13.60
2018-11-25T06:48:00.254Z,13.90
2018-11-25T06:51:04.381Z,13.23
2018-11-25T06:54:08.511Z,12.97
2018-11-25T06:57:12.643Z,13.83
2018-11-25T07:00:23.283Z,13.27
2018-11-25T07:03:27.381Z,12.77
2018-11-25T07:06:31.505Z,12.77
2018-11-25T07:09:35.613Z,14.10
2018-11-25T07:12:39.744Z,13.77
2018-11-25T07:15:43.868Z,12.97
2018-11-25T07:18:47.980Z,15.60
2018-11-25T07:21:52.096Z,14.03
2018-11-25T07:24:56.239Z,14.93
2018-11-25T07:28:17.666Z,17.90
2018-11-25T07:31:05.646Z,15.77
2018-11-25T07:34:09.770Z,15.80
2018-11-25T07:37:13.907Z,15.67
2018-11-25T07:40:23.235Z,16.10
2018-11-25T07:43:27.356Z,17.53
2018-11-25T07:46:31.464Z,15.73
2018-11-25T07:49:35.572Z,17.37
2018-11-25T07:52:39.836Z,18.03
2018-11-25T07:55:43.943Z,17.70
2018-11-25T07:58:48.055Z,18.60
2018-11-25T08:01:52.175Z,19.23
2018-11-25T08:04:56.295Z,19.50
2018-11-25T08:08:00.399Z,19.43
2018-11-25T08:11:04.536Z,20.50
2018-11-25T08:14:08.755Z,20.97
2018-11-25T08:17:12.948Z,23.00
2018-11-25T08:20:18.622Z,23.23
2018-11-25T08:23:22.827Z,21.20
2018-11-25T08:26:26.940Z,20.13
2018-11-25T08:29:31.060Z,20.77
2018-11-25T08:32:35.179Z,20.10
2018-11-25T08:35:39.279Z,20.43
2018-11-25T08:38:43.404Z,21.37
2018-11-25T08:41:47.492Z,20.33
2018-11-25T08:44:51.623Z,20.93
2018-11-25T08:47:55.719Z,21.23
2018-11-25T08:50:59.868Z,21.33
2018-11-25T08:54:03.986Z,22.53
2018-11-25T08:57:08.100Z,21.50
2018-11-25T09:00:17.560Z,21.03
2018-11-25T09:03:21.656Z,20.70
2018-11-25T09:06:25.798Z,21.30
2018-11-25T09:09:30.447Z,19.23
2018-11-25T09:12:34.119Z,21.37
2018-11-25T09:15:38.215Z,19.50
2018-11-25T09:18:42.344Z,19.97
2018-11-25T09:21:46.476Z,20.23
2018-11-25T09:24:50.785Z,20.17
2018-11-25T09:27:55.403Z,19.03
2018-11-25T09:30:59.544Z,18.17
2018-11-25T09:34:03.631Z,18.70
2018-11-25T09:37:07.864Z,19.93
2018-11-25T09:40:14.803Z,18.57
2018-11-25T09:43:18.918Z,17.03
2018-11-25T09:46:23.076Z,16.63
2018-11-25T09:49:27.184Z,17.23
2018-11-25T09:52:31.307Z,16.97
2018-11-25T09:55:35.416Z,18.50
2018-11-25T09:58:39.532Z,17.07
2018-11-25T10:01:43.664Z,18.33
2018-11-25T10:04:47.828Z,17.07
2018-11-25T10:07:51.988Z,16.77
2018-11-25T10:10:57.127Z,16.70
2018-11-25T10:14:01.351Z,15.90
2018-11-25T10:17:05.971Z,15.30
2018-11-25T10:20:17.680Z,14.97
2018-11-25T10:23:21.855Z,14.73
2018-11-25T10:26:26.020Z,16.43
2018-11-25T10:29:30.128Z,14.10
2018-11-25T10:32:34.257Z,14.63
2018-11-25T10:35:38.385Z,14.93
2018-11-25T10:38:42.580Z,13.30
2018-11-25T10:41:46.708Z,14.47
2018-11-25T10:44:50.834Z,13.80
2018-11-25T10:47:55.648Z,13.03
2018-11-25T10:50:59.773Z,13.67
2018-11-25T10:54:03.904Z,12.67
2018-11-25T10:57:08.219Z,13.73
2018-11-25T11:00:20.527Z,11.87
2018-11-25T11:03:30.029Z,11.67
2018-11-25T11:06:39.387Z,12.00
2018-11-25T11:09:43.513Z,11.37
2018-11-25T11:12:47.645Z,12.23
2018-11-25T11:15:51.763Z,11.17
2018-11-25T11:18:55.888Z,12.30
2018-11-25T11:22:00.069Z,11.37
2018-11-25T11:25:04.303Z,11.00
2018-11-25T11:28:08.510Z,11.27
2018-11-25T11:31:13.482Z,11.50
2018-11-25T11:34:16.856Z,12.17
2018-11-25T11:37:21.061Z,12.17
2018-11-25T11:40:25.181Z,11.57
2018-11-25T11:43:29.308Z,11.70
2018-11-25T11:46:33.514Z,14.47
2018-11-25T11:49:37.648Z,12.23
2018-11-25T11:52:41.772Z,11.50
2018-11-25T11:55:45.887Z,11.27
2018-11-25T11:58:50.080Z,12.47
2018-11-25T12:01:54.227Z,12.43
2018-11-25T12:04:58.351Z,11.23
2018-11-25T12:08:02.538Z,11.43
2018-11-25T12:11:07.384Z,11.47
2018-11-25T12:14:11.530Z,10.07
2018-11-25T12:17:15.699Z,10.83
2018-11-25T12:20:21.363Z,9.97
2018-11-25T12:23:24.712Z,10.60
2018-11-25T12:26:28.888Z,10.53
2018-11-25T12:29:33.084Z,10.37
2018-11-25T12:32:37.308Z,10.80
2018-11-25T12:35:41.512Z,10.07
2018-11-25T12:38:45.649Z,9.67
2018-11-25T12:41:49.859Z,10.03
2018-11-25T12:44:53.989Z,9.90
2018-11-25T12:47:58.210Z,10.17
2018-11-25T12:51:02.394Z,9.33
2018-11-25T12:54:06.831Z,9.33
2018-11-25T12:57:12.401Z,9.13
2018-11-25T13:00:20.878Z,9.20
2018-11-25T13:03:25.423Z,8.33
2018-11-25T13:06:29.964Z,8.13
2018-11-25T13:09:34.120Z,8.57
2018-11-25T13:12:41.384Z,7.67
2018-11-25T13:15:45.516Z,8.13
2018-11-25T13:18:49.635Z,8.27
2018-11-25T13:21:53.762Z,7.90
2018-11-25T13:24:57.882Z,8.30
2018-11-25T13:28:02.369Z,7.90
2018-11-25T13:31:06.777Z,8.43
2018-11-25T13:34:10.902Z,9.10
2018-11-25T13:37:15.088Z,8.37
2018-11-25T13:40:20.319Z,7.93
2018-11-25T13:43:25.720Z,9.10
2018-11-25T13:46:37.557Z,8.50
2018-11-25T13:49:42.225Z,8.60
2018-11-25T13:52:47.717Z,9.23
2018-11-25T13:55:52.439Z,8.37
2018-11-25T13:58:57.573Z,9.20
2018-11-25T14:02:02.305Z,10.40
2018-11-25T14:05:07.927Z,9.70
2018-11-25T14:08:12.137Z,9.43
2018-11-25T14:11:16.295Z,9.27
2018-11-25T14:14:20.417Z,9.57
2018-11-25T14:17:24.552Z,11.00
2018-11-25T14:20:28.699Z,9.27
2018-11-25T14:23:32.825Z,9.97
2018-11-25T14:26:44.824Z,10.40
2018-11-25T14:29:49.389Z,10.00
2018-11-25T14:32:53.527Z,9.97
2018-11-25T14:35:57.775Z,9.93
2018-11-25T14:39:01.889Z,10.30
2018-11-25T14:42:06.872Z,9.97
2018-11-25T14:45:14.731Z,10.03
2018-11-25T14:48:18.856Z,9.87
2018-11-25T14:51:23.239Z,9.50
2018-11-25T14:54:27.600Z,9.47
2018-11-25T14:57:32.166Z,8.80
2018-11-25T15:00:36.292Z,9.93
2018-11-25T15:03:40.663Z,8.60
2018-11-25T15:06:44.771Z,9.23
2018-11-25T15:09:48.884Z,9.07
2018-11-25T15:12:53.380Z,8.83
2018-11-25T15:15:59.468Z,8.40
2018-11-25T15:19:03.588Z,8.93
2018-11-25T15:22:07.717Z,8.80
2018-11-25T15:25:17.447Z,9.57
2018-11-25T15:28:21.928Z,9.37
2018-11-25T15:31:26.016Z,8.90
2018-11-25T15:34:30.149Z,9.53
2018-11-25T15:37:34.385Z,9.80
2018-11-25T15:40:39.079Z,8.67
2018-11-25T15:43:43.226Z,10.23
2018-11-25T15:46:47.409Z,9.57
2018-11-25T15:49:51.566Z,10.37
2018-11-25T15:52:56.192Z,10.90
2018-11-25T15:56:04.461Z,10.67
2018-11-25T15:59:08.589Z,11.77
2018-11-25T16:02:12.706Z,10.87
2018-11-25T16:05:20.077Z,11.73
2018-11-25T16:08:24.195Z,12.67
2018-11-25T16:11:28.334Z,12.93
2018-11-25T16:14:32.463Z,13.43
2018-11-25T16:17:36.611Z,13.13
2018-11-25T16:20:40.730Z,14.93
2018-11-25T16:23:44.856Z,14.17
2018-11-25T16:26:49.048Z,15.13
2018-11-25T16:29:53.167Z,14.73
2018-11-25T16:33:01.105Z,14.50
2018-11-25T16:36:05.309Z,16.70
2018-11-25T16:39:10.773Z,16.20
2018-11-25T16:42:14.880Z,16.10
2018-11-25T16:45:19.010Z,16.43
2018-11-25T16:48:23.100Z,17.17
2018-11-25T16:51:27.231Z,16.00
2018-11-25T16:54:31.323Z,17.43
2018-11-25T16:57:35.433Z,15.70
2018-11-25T17:00:39.540Z,17.67
2018-11-25T17:03:43.648Z,16.40
2018-11-25T17:06:50.191Z,16.07
2018-11-25T17:09:54.280Z,16.33
2018-11-25T17:12:58.383Z,15.47
2018-11-25T17:16:02.500Z,17.17
2018-11-25T17:19:06.608Z,16.50
2018-11-25T17:22:16.438Z,16.97
2018-11-25T17:25:15.095Z,15.17
2018-11-25T17:28:19.215Z,16.63
2018-11-25T17:31:23.412Z,16.73
2018-11-25T17:34:27.511Z,17.57
2018-11-25T17:37:31.648Z,17.20
2018-11-25T17:40:35.776Z,17.67
2018-11-25T17:43:39.989Z,16.63
2018-11-25T17:46:44.164Z,16.03
2018-11-25T17:49:48.303Z,17.90
2018-11-25T17:52:52.453Z,16.63
2018-11-25T17:55:56.575Z,16.93
2018-11-25T17:59:00.772Z,16.60
2018-11-25T18:02:05.923Z,16.63
2018-11-25T18:05:10.092Z,17.07
2018-11-25T18:08:14.225Z,16.93
2018-11-25T18:11:18.391Z,16.27
2018-11-25T18:14:22.519Z,16.57
2018-11-25T18:17:26.652Z,15.93
2018-11-25T18:20:39.347Z,15.57
2018-11-25T18:23:43.468Z,17.50
2018-11-25T18:26:48.080Z,17.20
2018-11-25T18:29:52.301Z,15.43
2018-11-25T18:32:56.435Z,16.00
2018-11-25T18:36:01.720Z,15.67
2018-11-25T18:39:10.991Z,15.33
2018-11-25T18:42:15.104Z,16.50
2018-11-25T18:45:20.362Z,16.80
2018-11-25T18:48:24.483Z,15.77
2018-11-25T18:51:28.611Z,16.50
2018-11-25T18:54:32.747Z,16.57
2018-11-25T18:57:36.913Z,15.83
2018-11-25T19:00:43.983Z,15.63
2018-11-25T19:03:48.164Z,15.37
2018-11-25T19:06:52.283Z,15.00
2018-11-25T19:09:56.400Z,15.43
2018-11-25T19:13:00.536Z,15.77
2018-11-25T19:16:04.711Z,15.63
2018-11-25T19:19:08.828Z,16.90
2018-11-25T19:22:12.945Z,16.20
2018-11-25T19:25:18.471Z,15.67
2018-11-25T19:28:22.668Z,15.93
2018-11-25T19:31:27.259Z,16.10
2018-11-25T19:34:31.450Z,17.03
2018-11-25T19:37:36.180Z,16.93
2018-11-25T19:40:40.393Z,15.97
2018-11-25T19:43:44.861Z,17.77
2018-11-25T19:46:49.591Z,16.07
2018-11-25T19:49:54.111Z,17.23
2018-11-25T19:52:58.332Z,15.73
2018-11-25T19:56:02.481Z,17.70
2018-11-25T19:59:07.340Z,17.37
2018-11-25T20:02:11.463Z,15.77
2018-11-25T20:05:16.147Z,17.23
2018-11-25T20:08:20.353Z,16.57
2018-11-25T20:11:24.876Z,16.90
2018-11-25T20:14:29.395Z,15.90
2018-11-25T20:17:33.508Z,15.57
2018-11-25T20:20:37.636Z,14.77
2018-11-25T20:23:42.255Z,16.00
2018-11-25T20:26:51.667Z,15.07
2018-11-25T20:29:55.805Z,15.10
2018-11-25T20:33:05.653Z,14.63
2018-11-25T20:36:10.193Z,14.83
2018-11-25T20:39:20.157Z,15.83
2018-11-25T20:42:24.292Z,15.33
2018-11-25T20:45:38.584Z,15.33
2018-11-25T20:48:37.929Z,15.27
2018-11-25T20:51:47.425Z,15.10
2018-11-25T20:54:51.570Z,14.87
2018-11-25T20:57:55.740Z,15.57
2018-11-25T21:01:00.668Z,14.33
2018-11-25T21:04:04.817Z,14.50
2018-11-25T21:07:08.957Z,14.70
2018-11-25T21:10:15.714Z,14.30
2018-11-25T21:13:19.868Z,15.23
2018-11-25T21:16:23.938Z,13.20
2018-11-25T21:19:28.165Z,14.30
2018-11-25T21:22:32.348Z,13.93
2018-11-25T21:25:36.455Z,15.57
2018-11-25T21:28:40.556Z,15.50
2018-11-25T21:31:44.649Z,15.73
2018-11-25T21:34:48.844Z,15.20
2018-11-25T21:37:52.973Z,14.50
2018-11-25T21:40:57.112Z,15.53
2018-11-25T21:44:01.256Z,14.87
2018-11-25T21:47:05.496Z,14.90
2018-11-25T21:50:12.376Z,14.37
2018-11-25T21:53:16.489Z,15.53
2018-11-25T21:56:20.624Z,16.07
2018-11-25T21:59:24.749Z,14.53
2018-11-25T22:02:28.888Z,15.40
2018-11-25T22:05:33.025Z,15.43
2018-11-25T22:08:37.171Z,14.63
2018-11-25T22:11:41.353Z,15.53
2018-11-25T22:14:45.478Z,13.47
2018-11-25T22:17:49.660Z,14.43
2018-11-25T22:20:53.782Z,15.10
2018-11-25T22:23:57.975Z,14.43
2018-11-25T22:27:02.117Z,14.67
2018-11-25T22:30:12.067Z,14.53
2018-11-25T22:33:16.180Z,14.17
2018-11-25T22:36:20.340Z,14.30
2018-11-25T22:39:24.600Z,14.50
2018-11-25T22:42:28.724Z,13.93
2018-11-25T22:45:32.937Z,14.10
2018-11-25T22:48:37.044Z,14.53
2018-11-25T22:51:41.176Z,14.77
2018-11-25T22:54:45.293Z,15.13
2018-11-25T22:57:49.445Z,14.83
2018-11-25T23:00:54.131Z,15.67
2018-11-25T23:04:15.493Z,15.27
2018-11-25T23:07:19.604Z,16.47
2018-11-25T23:10:23.715Z,16.67
2018-11-25T23:13:27.824Z,16.10
2018-11-25T23:16:31.943Z,15.77
2018-11-25T23:19:36.867Z,15.63
2018-11-25T23:22:40.987Z,16.23
2018-11-25T23:25:45.095Z,16.07
2018-11-25T23:28:49.215Z,18.10
2018-11-25T23:31:53.491Z,18.00
2018-11-25T23:34:57.584Z,16.63
2018-11-25T23:38:01.680Z,17.87
2018-11-25T23:41:06.529Z,17.17
2018-11-25T23:44:10.623Z,16.77
2018-11-25T23:47:14.715Z,18.83
2018-11-25T23:50:18.833Z,18.53
2018-11-25T23:53:22.956Z,18.57
2018-11-25T23:56:27.047Z,18.77
2018-11-25T23:59:31.243Z,19.00
